Tuesday, December 18, 2018, 12:42 PM EST
Back to Local

KBAF, Westfield Barnes Municipal

Location: Westfield, MA, United States Lat: 42.167
Local Time: 12:42 PM EST (17:42 GMT) Lon: -72.717
Time Zone: US/Eastern Elev: 272 ft

Show me the last for .
Show Decoded

2018-12-18 11:53 METAR KBAF 181653Z 32016G23KT 10SM CLR M02/M13 A2995 RMK AO2 PK WND 33030/1558
                 SLP146 T10171133 =
2018-12-18 10:53 METAR KBAF 181553Z 31020G25KT 10SM CLR M03/M13 A2994 RMK AO2 PK WND 31026/1519
                 SLP145 T10281133 =
2018-12-18 09:53 METAR KBAF 181453Z 32017G27KT 10SM CLR M04/M14 A2995 RMK AO2 PK WND 34032/1417
                 SLP150 T10391139 51024 =
2018-12-18 08:53 METAR KBAF 181353Z 32020G27KT 10SM CLR M04/M14 A2993 RMK AO2 PK WND 33030/1325
                 SLP143 T10441144 =
2018-12-18 07:53 METAR KBAF 181253Z 33012G22KT 10SM CLR M06/M14 A2992 RMK AO2 PK WND 32031/1232
                 SLP137 T10561144 =
2018-12-18 06:53 METAR KBAF 181153Z 33016G24KT 10SM BKN046 M06/M14 A2988 RMK AO2 PK WND
                 32029/1113 SLP126 60000 T10561144 10000 21056 51033 =
2018-12-18 05:53 METAR KBAF 181053Z AUTO 31015G26KT 10SM OVC046 M05/M14 A2985 RMK AO2 PK WND
                 34029/1002 SLP116 T10501139 =
2018-12-18 04:53 METAR KBAF 180953Z AUTO 33016G31KT 10SM FEW040 M05/M14 A2982 RMK AO2 PK WND
                 33031/0949 SLP105 T10501139 =
2018-12-18 03:53 METAR KBAF 180853Z AUTO 31018G27KT 10SM BKN030 M04/M12 A2978 RMK AO2 PK WND
                 30038/0805 UPB03E29 SLP091 P0000 60000 T10441117 51041 =
2018-12-18 02:53 METAR KBAF 180753Z AUTO 30024G30KT 10SM OVC044 M03/M11 A2975 RMK AO2 PK WND
                 29031/0733 UPB28E38 SLP082 P0000 T10331106 =
2018-12-18 01:53 METAR KBAF 180653Z AUTO 32018G28KT 10SM OVC040 M01/M09 A2971 RMK AO2 PK WND
                 32034/0621 PRESRR SLP065 T10111094 =
2018-12-18 00:53 METAR KBAF 180553Z AUTO 32018G26KT 10SM FEW035 OVC045 00/M08 A2966 RMK AO2 PK
                 WND 33034/0523 SNB03E25 SLP050 P0000 60000 T00001083 10033 21006 53009 =
2018-12-18 00:25 METAR KBAF 180525Z AUTO 31020G34KT 9SM FEW024 BKN034 OVC049 00/M05 A2965 RMK AO2
                 PK WND 33034/0523 SNB03E25 P0000 T00001050 =
2018-12-18 00:18 METAR KBAF 180518Z AUTO 31016G24KT 2 1/2SM -SN SCT024 BKN030 OVC038 M01/M04
                 A2964 RMK AO2 SNB03 P0000 T10061039 =
2018-12-17 23:53 METAR KBAF 180453Z AUTO 31019G29KT 10SM SCT039 SCT050 BKN065 01/M06 A2963 RMK
                 AO2 PK WND 32030/0437 SLP040 T00111061 400560011 =
2018-12-17 22:53 METAR KBAF 180353Z AUTO 29012G24KT 250V330 10SM FEW034 BKN075 02/M04 A2963 RMK
                 AO2 SLP040 T00221039 =
2018-12-17 22:08 METAR KBAF 180308Z AUTO 28007KT 10SM SCT025 BKN030 OVC049 02/M03 A2964 RMK AO2
                 T00221028 =
2018-12-17 22:01 METAR KBAF 180301Z AUTO 29006KT 10SM FEW025 BKN029 OVC036 02/M03 A2963 RMK AO2
                 T00221028 =
2018-12-17 21:53 METAR KBAF 180253Z 28007KT 10SM SCT027 OVC033 02/M03 A2964 RMK AO2 SLP040
                 T00221028 50000 =
2018-12-17 20:53 METAR KBAF 180153Z 29009KT 10SM BKN032 OVC040 03/M03 A2964 RMK AO2 SLP041
                 T00331028 =
2018-12-17 19:53 METAR KBAF 180053Z 30008KT 270V340 10SM BKN035 OVC080 03/M03 A2964 RMK AO2
                 SLP041 T00331028 =
2018-12-17 18:53 METAR KBAF 172353Z 31010KT 10SM FEW033 SCT070 03/M03 A2963 RMK AO2 SLP041
                 T00281033 10056 20028 51015 =
2018-12-17 17:53 METAR KBAF 172253Z 32013G21KT 10SM BKN065 03/M03 A2962 RMK AO2 SLP035 T00331033
                 =
2018-12-17 16:53 METAR KBAF 172153Z 33012G21KT 10SM FEW036 03/M03 A2961 RMK AO2 SLP032 T00331033
                 =
2018-12-17 15:53 METAR KBAF 172053Z 32008G21KT 290V350 10SM BKN038 OVC050 04/M03 A2959 RMK AO2 PK
                 WND 30028/2020 SLP025 T00391028 53007 =
2018-12-17 14:53 METAR KBAF 171953Z 30016G22KT 10SM BKN038 BKN049 OVC060 04/M02 A2958 RMK AO2
                 SLP022 T00441017 =
2018-12-17 13:53 METAR KBAF 171853Z 29011G22KT 10SM BKN030 OVC042 05/M01 A2957 RMK AO2 SLP017
                 T00501006 =
2018-12-17 13:49 METAR KBAF 171849Z 31014G22KT 10SM BKN030 OVC042 05/M01 A2957 RMK AO2 =
2018-12-17 12:53 METAR KBAF 171753Z 29006KT 10SM BKN025 OVC034 04/M01 A2959 RMK AO2 SLP025
                 T00441006 10044 20011 56028 =

Support USWX by starting your Amazon purchase here.